sensor_id;sensor_type;location;lat;lon;timestamp;P1;durP1;ratioP1;P2;durP2;ratioP2
24739;SDS011;45234;48.148;17.128;2024-03-22T00:01:48;7.57;;;6.15;;
24739;SDS011;45234;48.148;17.128;2024-03-22T00:04:14;7.63;;;5.95;;
24739;SDS011;45234;48.148;17.128;2024-03-22T00:06:41;8.38;;;6.28;;
24739;SDS011;45234;48.148;17.128;2024-03-22T00:09:08;8.63;;;6.05;;
24739;SDS011;45234;48.148;17.128;2024-03-22T00:11:35;8.82;;;6.75;;
24739;SDS011;45234;48.148;17.128;2024-03-22T00:14:01;7.82;;;5.85;;
24739;SDS011;45234;48.148;17.128;2024-03-22T00:16:27;7.43;;;6.55;;
24739;SDS011;45234;48.148;17.128;2024-03-22T00:18:54;6.57;;;5.88;;
24739;SDS011;45234;48.148;17.128;2024-03-22T00:21:21;8.00;;;7.03;;
24739;SDS011;45234;48.148;17.128;2024-03-22T00:23:47;11.85;;;6.90;;
24739;SDS011;45234;48.148;17.128;2024-03-22T00:26:13;7.20;;;6.47;;
24739;SDS011;45234;48.148;17.128;2024-03-22T00:28:39;9.23;;;6.75;;
24739;SDS011;45234;48.148;17.128;2024-03-22T00:31:05;8.32;;;6.97;;
24739;SDS011;45234;48.148;17.128;2024-03-22T00:33:32;7.75;;;6.65;;
24739;SDS011;45234;48.148;17.128;2024-03-22T00:35:58;10.00;;;6.82;;
24739;SDS011;45234;48.148;17.128;2024-03-22T00:38:23;9.18;;;7.40;;
24739;SDS011;45234;48.148;17.128;2024-03-22T00:40:49;9.07;;;6.40;;
24739;SDS011;45234;48.148;17.128;2024-03-22T00:43:16;7.32;;;6.60;;
24739;SDS011;45234;48.148;17.128;2024-03-22T00:45:41;7.32;;;6.60;;
24739;SDS011;45234;48.148;17.128;2024-03-22T00:48:07;8.98;;;7.40;;
24739;SDS011;45234;48.148;17.128;2024-03-22T00:50:33;8.35;;;6.72;;
24739;SDS011;45234;48.148;17.128;2024-03-22T00:52:59;8.77;;;6.85;;
24739;SDS011;45234;48.148;17.128;2024-03-22T00:55:27;8.60;;;6.65;;
24739;SDS011;45234;48.148;17.128;2024-03-22T00:57:53;7.78;;;6.78;;
24739;SDS011;45234;48.148;17.128;2024-03-22T01:00:19;9.25;;;7.82;;
24739;SDS011;45234;48.148;17.128;2024-03-22T01:02:45;10.07;;;6.93;;
24739;SDS011;45234;48.148;17.128;2024-03-22T01:05:11;9.75;;;7.80;;
24739;SDS011;45234;48.148;17.128;2024-03-22T01:07:37;10.38;;;8.25;;
24739;SDS011;45234;48.148;17.128;2024-03-22T01:10:03;9.55;;;7.60;;
24739;SDS011;45234;48.148;17.128;2024-03-22T01:12:30;9.98;;;8.27;;
24739;SDS011;45234;48.148;17.128;2024-03-22T01:14:55;11.02;;;7.63;;
24739;SDS011;45234;48.148;17.128;2024-03-22T01:17:22;10.32;;;7.95;;
24739;SDS011;45234;48.148;17.128;2024-03-22T01:19:47;9.63;;;7.85;;
24739;SDS011;45234;48.148;17.128;2024-03-22T01:22:13;10.18;;;8.45;;
24739;SDS011;45234;48.148;17.128;2024-03-22T01:24:39;9.80;;;8.30;;
24739;SDS011;45234;48.148;17.128;2024-03-22T01:27:05;10.13;;;8.75;;
24739;SDS011;45234;48.148;17.128;2024-03-22T01:29:31;11.73;;;9.40;;
24739;SDS011;45234;48.148;17.128;2024-03-22T01:31:59;11.63;;;8.93;;
24739;SDS011;45234;48.148;17.128;2024-03-22T01:34:25;10.13;;;8.43;;
24739;SDS011;45234;48.148;17.128;2024-03-22T01:36:51;11.65;;;8.85;;
24739;SDS011;45234;48.148;17.128;2024-03-22T01:39:18;11.02;;;9.43;;
24739;SDS011;45234;48.148;17.128;2024-03-22T01:41:48;9.85;;;8.85;;
24739;SDS011;45234;48.148;17.128;2024-03-22T01:44:14;13.10;;;10.90;;
24739;SDS011;45234;48.148;17.128;2024-03-22T01:46:40;12.25;;;9.13;;
24739;SDS011;45234;48.148;17.128;2024-03-22T01:49:07;11.25;;;9.88;;
24739;SDS011;45234;48.148;17.128;2024-03-22T01:51:36;12.10;;;10.48;;
24739;SDS011;45234;48.148;17.128;2024-03-22T01:54:02;15.48;;;12.18;;
24739;SDS011;45234;48.148;17.128;2024-03-22T01:56:29;13.18;;;11.52;;
24739;SDS011;45234;48.148;17.128;2024-03-22T01:58:55;15.07;;;11.75;;
24739;SDS011;45234;48.148;17.128;2024-03-22T02:01:22;15.65;;;12.40;;
24739;SDS011;45234;48.148;17.128;2024-03-22T02:03:48;14.80;;;11.32;;
24739;SDS011;45234;48.148;17.128;2024-03-22T02:06:14;13.52;;;10.88;;
24739;SDS011;45234;48.148;17.128;2024-03-22T02:08:40;12.40;;;10.43;;
24739;SDS011;45234;48.148;17.128;2024-03-22T02:11:06;13.98;;;11.80;;
24739;SDS011;45234;48.148;17.128;2024-03-22T02:13:32;16.40;;;12.00;;
24739;SDS011;45234;48.148;17.128;2024-03-22T02:15:59;13.55;;;11.80;;
24739;SDS011;45234;48.148;17.128;2024-03-22T02:18:48;14.18;;;12.07;;
24739;SDS011;45234;48.148;17.128;2024-03-22T02:21:14;19.40;;;13.07;;
24739;SDS011;45234;48.148;17.128;2024-03-22T02:23:40;21.08;;;14.60;;
24739;SDS011;45234;48.148;17.128;2024-03-22T02:26:06;14.95;;;13.10;;
24739;SDS011;45234;48.148;17.128;2024-03-22T02:28:33;17.20;;;12.98;;
24739;SDS011;45234;48.148;17.128;2024-03-22T02:31:04;17.90;;;14.00;;
24739;SDS011;45234;48.148;17.128;2024-03-22T02:33:30;16.98;;;13.75;;
24739;SDS011;45234;48.148;17.128;2024-03-22T02:35:56;20.23;;;13.57;;
24739;SDS011;45234;48.148;17.128;2024-03-22T02:38:22;20.73;;;14.65;;
24739;SDS011;45234;48.148;17.128;2024-03-22T02:40:49;17.17;;;14.35;;
24739;SDS011;45234;48.148;17.128;2024-03-22T02:43:16;18.30;;;14.60;;
24739;SDS011;45234;48.148;17.128;2024-03-22T02:45:46;19.67;;;14.30;;
24739;SDS011;45234;48.148;17.128;2024-03-22T02:48:13;21.67;;;14.32;;
24739;SDS011;45234;48.148;17.128;2024-03-22T02:50:39;20.00;;;14.73;;
24739;SDS011;45234;48.148;17.128;2024-03-22T02:53:05;17.38;;;13.93;;
24739;SDS011;45234;48.148;17.128;2024-03-22T02:55:38;19.55;;;14.20;;
24739;SDS011;45234;48.148;17.128;2024-03-22T02:58:05;22.48;;;15.52;;
24739;SDS011;45234;48.148;17.128;2024-03-22T03:00:39;17.95;;;14.57;;
24739;SDS011;45234;48.148;17.128;2024-03-22T03:03:05;17.45;;;14.90;;
24739;SDS011;45234;48.148;17.128;2024-03-22T03:05:31;21.23;;;15.50;;
24739;SDS011;45234;48.148;17.128;2024-03-22T03:07:57;20.77;;;15.80;;
24739;SDS011;45234;48.148;17.128;2024-03-22T03:10:23;19.20;;;15.07;;
24739;SDS011;45234;48.148;17.128;2024-03-22T03:12:49;21.40;;;14.77;;
24739;SDS011;45234;48.148;17.128;2024-03-22T03:15:15;22.67;;;15.35;;
24739;SDS011;45234;48.148;17.128;2024-03-22T03:17:42;17.75;;;15.15;;
24739;SDS011;45234;48.148;17.128;2024-03-22T03:20:08;17.38;;;14.52;;
24739;SDS011;45234;48.148;17.128;2024-03-22T03:22:38;18.08;;;15.30;;
24739;SDS011;45234;48.148;17.128;2024-03-22T03:25:05;21.45;;;15.43;;
24739;SDS011;45234;48.148;17.128;2024-03-22T03:27:32;20.60;;;15.18;;
24739;SDS011;45234;48.148;17.128;2024-03-22T03:29:59;18.95;;;16.13;;
24739;SDS011;45234;48.148;17.128;2024-03-22T03:32:26;18.85;;;15.18;;
24739;SDS011;45234;48.148;17.128;2024-03-22T03:34:52;21.13;;;16.35;;
24739;SDS011;45234;48.148;17.128;2024-03-22T03:37:18;19.52;;;15.48;;
24739;SDS011;45234;48.148;17.128;2024-03-22T03:39:43;19.40;;;14.57;;
24739;SDS011;45234;48.148;17.128;2024-03-22T03:42:10;23.77;;;16.40;;
24739;SDS011;45234;48.148;17.128;2024-03-22T03:44:36;20.20;;;15.80;;
24739;SDS011;45234;48.148;17.128;2024-03-22T03:47:02;19.23;;;15.60;;
24739;SDS011;45234;48.148;17.128;2024-03-22T03:49:28;22.45;;;16.50;;
24739;SDS011;45234;48.148;17.128;2024-03-22T03:51:54;21.13;;;16.52;;
24739;SDS011;45234;48.148;17.128;2024-03-22T03:54:20;25.75;;;16.30;;
24739;SDS011;45234;48.148;17.128;2024-03-22T03:56:46;19.08;;;14.90;;
24739;SDS011;45234;48.148;17.128;2024-03-22T03:59:12;18.70;;;15.85;;
24739;SDS011;45234;48.148;17.128;2024-03-22T04:01:38;20.50;;;16.65;;
24739;SDS011;45234;48.148;17.128;2024-03-22T04:04:04;20.70;;;15.98;;
24739;SDS011;45234;48.148;17.128;2024-03-22T04:06:29;21.13;;;16.02;;
24739;SDS011;45234;48.148;17.128;2024-03-22T04:08:55;22.45;;;16.75;;
24739;SDS011;45234;48.148;17.128;2024-03-22T04:11:22;19.92;;;16.83;;
24739;SDS011;45234;48.148;17.128;2024-03-22T04:13:48;22.27;;;16.63;;
24739;SDS011;45234;48.148;17.128;2024-03-22T04:16:14;21.63;;;17.75;;
24739;SDS011;45234;48.148;17.128;2024-03-22T04:18:40;22.17;;;17.55;;
24739;SDS011;45234;48.148;17.128;2024-03-22T04:21:06;21.67;;;17.50;;
24739;SDS011;45234;48.148;17.128;2024-03-22T04:23:31;21.42;;;16.85;;
24739;SDS011;45234;48.148;17.128;2024-03-22T04:25:58;20.65;;;16.83;;
24739;SDS011;45234;48.148;17.128;2024-03-22T04:28:26;22.40;;;18.38;;
24739;SDS011;45234;48.148;17.128;2024-03-22T04:31:05;22.98;;;18.60;;
24739;SDS011;45234;48.148;17.128;2024-03-22T04:33:33;24.55;;;18.13;;
24739;SDS011;45234;48.148;17.128;2024-03-22T04:35:59;19.77;;;16.42;;
24739;SDS011;45234;48.148;17.128;2024-03-22T04:38:26;27.02;;;19.88;;
24739;SDS011;45234;48.148;17.128;2024-03-22T04:40:53;22.63;;;18.60;;
24739;SDS011;45234;48.148;17.128;2024-03-22T04:43:19;21.42;;;18.08;;
24739;SDS011;45234;48.148;17.128;2024-03-22T04:45:46;23.40;;;19.38;;
24739;SDS011;45234;48.148;17.128;2024-03-22T04:48:14;22.52;;;17.67;;
24739;SDS011;45234;48.148;17.128;2024-03-22T04:50:42;22.67;;;18.52;;
24739;SDS011;45234;48.148;17.128;2024-03-22T04:53:08;23.17;;;19.27;;
24739;SDS011;45234;48.148;17.128;2024-03-22T04:55:33;23.02;;;18.65;;
24739;SDS011;45234;48.148;17.128;2024-03-22T04:57:59;25.77;;;17.75;;
24739;SDS011;45234;48.148;17.128;2024-03-22T05:00:25;23.67;;;18.00;;
24739;SDS011;45234;48.148;17.128;2024-03-22T05:02:51;21.40;;;17.80;;
24739;SDS011;45234;48.148;17.128;2024-03-22T05:05:18;23.02;;;18.63;;
24739;SDS011;45234;48.148;17.128;2024-03-22T05:07:44;20.50;;;17.95;;
24739;SDS011;45234;48.148;17.128;2024-03-22T05:10:10;23.20;;;18.80;;
24739;SDS011;45234;48.148;17.128;2024-03-22T05:12:37;22.92;;;18.88;;
24739;SDS011;45234;48.148;17.128;2024-03-22T05:15:04;23.85;;;18.95;;
24739;SDS011;45234;48.148;17.128;2024-03-22T05:17:31;22.13;;;18.38;;
24739;SDS011;45234;48.148;17.128;2024-03-22T05:19:59;20.48;;;16.33;;
24739;SDS011;45234;48.148;17.128;2024-03-22T05:22:25;24.27;;;18.23;;
24739;SDS011;45234;48.148;17.128;2024-03-22T05:24:51;24.55;;;19.13;;
24739;SDS011;45234;48.148;17.128;2024-03-22T05:27:17;23.38;;;17.88;;
24739;SDS011;45234;48.148;17.128;2024-03-22T05:29:43;24.73;;;18.48;;
24739;SDS011;45234;48.148;17.128;2024-03-22T05:32:09;22.08;;;17.65;;
24739;SDS011;45234;48.148;17.128;2024-03-22T05:34:35;23.42;;;17.92;;
24739;SDS011;45234;48.148;17.128;2024-03-22T05:37:01;24.10;;;18.73;;
24739;SDS011;45234;48.148;17.128;2024-03-22T05:39:27;24.10;;;19.33;;
24739;SDS011;45234;48.148;17.128;2024-03-22T05:41:53;25.95;;;17.77;;
24739;SDS011;45234;48.148;17.128;2024-03-22T05:44:21;24.92;;;19.08;;
24739;SDS011;45234;48.148;17.128;2024-03-22T05:46:47;21.90;;;17.42;;
24739;SDS011;45234;48.148;17.128;2024-03-22T05:49:13;20.65;;;16.90;;
24739;SDS011;45234;48.148;17.128;2024-03-22T05:51:38;22.23;;;16.27;;
24739;SDS011;45234;48.148;17.128;2024-03-22T05:54:04;22.77;;;18.48;;
24739;SDS011;45234;48.148;17.128;2024-03-22T05:56:31;23.98;;;18.65;;
24739;SDS011;45234;48.148;17.128;2024-03-22T05:58:57;20.75;;;17.33;;
24739;SDS011;45234;48.148;17.128;2024-03-22T06:01:22;23.98;;;18.30;;
24739;SDS011;45234;48.148;17.128;2024-03-22T06:03:48;23.17;;;17.92;;
24739;SDS011;45234;48.148;17.128;2024-03-22T06:06:14;21.25;;;16.92;;
24739;SDS011;45234;48.148;17.128;2024-03-22T06:08:41;22.52;;;17.40;;
24739;SDS011;45234;48.148;17.128;2024-03-22T06:11:08;23.15;;;18.02;;
24739;SDS011;45234;48.148;17.128;2024-03-22T06:13:34;20.45;;;16.98;;
24739;SDS011;45234;48.148;17.128;2024-03-22T06:16:01;21.88;;;16.58;;
24739;SDS011;45234;48.148;17.128;2024-03-22T06:18:28;24.40;;;18.63;;
24739;SDS011;45234;48.148;17.128;2024-03-22T06:20:54;27.27;;;17.67;;
24739;SDS011;45234;48.148;17.128;2024-03-22T06:23:23;20.70;;;16.88;;
24739;SDS011;45234;48.148;17.128;2024-03-22T06:25:55;21.15;;;17.25;;
24739;SDS011;45234;48.148;17.128;2024-03-22T06:28:22;22.75;;;17.35;;
24739;SDS011;45234;48.148;17.128;2024-03-22T06:30:48;21.00;;;17.45;;
24739;SDS011;45234;48.148;17.128;2024-03-22T06:33:14;21.55;;;17.25;;
24739;SDS011;45234;48.148;17.128;2024-03-22T06:35:41;21.10;;;16.17;;
24739;SDS011;45234;48.148;17.128;2024-03-22T06:38:06;20.17;;;17.40;;
24739;SDS011;45234;48.148;17.128;2024-03-22T06:40:32;25.20;;;17.52;;
24739;SDS011;45234;48.148;17.128;2024-03-22T06:42:59;21.42;;;16.75;;
24739;SDS011;45234;48.148;17.128;2024-03-22T06:45:25;20.35;;;16.77;;
24739;SDS011;45234;48.148;17.128;2024-03-22T06:47:51;22.00;;;16.30;;
24739;SDS011;45234;48.148;17.128;2024-03-22T06:50:17;21.92;;;17.27;;
24739;SDS011;45234;48.148;17.128;2024-03-22T06:52:43;21.77;;;17.38;;
24739;SDS011;45234;48.148;17.128;2024-03-22T06:55:09;21.50;;;17.27;;
24739;SDS011;45234;48.148;17.128;2024-03-22T06:57:36;21.58;;;16.77;;
24739;SDS011;45234;48.148;17.128;2024-03-22T07:00:02;21.00;;;16.75;;
24739;SDS011;45234;48.148;17.128;2024-03-22T07:02:29;23.20;;;16.42;;
24739;SDS011;45234;48.148;17.128;2024-03-22T07:04:55;22.17;;;16.30;;
24739;SDS011;45234;48.148;17.128;2024-03-22T07:07:21;21.95;;;17.63;;
24739;SDS011;45234;48.148;17.128;2024-03-22T07:09:47;20.80;;;17.67;;
24739;SDS011;45234;48.148;17.128;2024-03-22T07:12:13;21.27;;;16.75;;
24739;SDS011;45234;48.148;17.128;2024-03-22T07:14:39;21.70;;;17.63;;
24739;SDS011;45234;48.148;17.128;2024-03-22T07:17:05;26.10;;;18.65;;
24739;SDS011;45234;48.148;17.128;2024-03-22T07:19:31;21.52;;;17.55;;
24739;SDS011;45234;48.148;17.128;2024-03-22T07:21:59;22.92;;;18.58;;
24739;SDS011;45234;48.148;17.128;2024-03-22T07:24:25;21.63;;;17.92;;
24739;SDS011;45234;48.148;17.128;2024-03-22T07:26:51;21.00;;;18.13;;
24739;SDS011;45234;48.148;17.128;2024-03-22T07:29:17;25.30;;;18.17;;
24739;SDS011;45234;48.148;17.128;2024-03-22T07:31:43;22.27;;;17.60;;
24739;SDS011;45234;48.148;17.128;2024-03-22T07:34:08;21.83;;;17.35;;
24739;SDS011;45234;48.148;17.128;2024-03-22T07:36:38;23.38;;;17.77;;
24739;SDS011;45234;48.148;17.128;2024-03-22T07:39:04;19.20;;;16.98;;
24739;SDS011;45234;48.148;17.128;2024-03-22T07:41:33;21.58;;;17.20;;
24739;SDS011;45234;48.148;17.128;2024-03-22T07:43:59;20.38;;;16.77;;
24739;SDS011;45234;48.148;17.128;2024-03-22T07:46:26;20.20;;;17.20;;
24739;SDS011;45234;48.148;17.128;2024-03-22T07:48:52;20.77;;;16.95;;
24739;SDS011;45234;48.148;17.128;2024-03-22T07:51:18;20.98;;;17.30;;
24739;SDS011;45234;48.148;17.128;2024-03-22T07:53:45;20.83;;;17.20;;
24739;SDS011;45234;48.148;17.128;2024-03-22T07:56:11;20.70;;;15.32;;
24739;SDS011;45234;48.148;17.128;2024-03-22T07:58:38;17.63;;;15.68;;
24739;SDS011;45234;48.148;17.128;2024-03-22T08:01:04;21.90;;;16.48;;
24739;SDS011;45234;48.148;17.128;2024-03-22T08:03:30;21.55;;;15.07;;
24739;SDS011;45234;48.148;17.128;2024-03-22T08:05:56;21.35;;;16.55;;
24739;SDS011;45234;48.148;17.128;2024-03-22T08:08:22;16.98;;;14.50;;
24739;SDS011;45234;48.148;17.128;2024-03-22T08:10:48;17.15;;;13.88;;
24739;SDS011;45234;48.148;17.128;2024-03-22T08:13:13;16.58;;;14.05;;
24739;SDS011;45234;48.148;17.128;2024-03-22T08:15:40;16.70;;;14.45;;
24739;SDS011;45234;48.148;17.128;2024-03-22T08:18:06;19.15;;;15.13;;
24739;SDS011;45234;48.148;17.128;2024-03-22T08:20:33;22.77;;;14.07;;
24739;SDS011;45234;48.148;17.128;2024-03-22T08:22:59;18.67;;;14.85;;
24739;SDS011;45234;48.148;17.128;2024-03-22T08:25:25;16.60;;;14.13;;
24739;SDS011;45234;48.148;17.128;2024-03-22T08:27:51;18.52;;;13.05;;
24739;SDS011;45234;48.148;17.128;2024-03-22T08:30:20;17.33;;;13.77;;
24739;SDS011;45234;48.148;17.128;2024-03-22T08:32:46;23.85;;;15.30;;
24739;SDS011;45234;48.148;17.128;2024-03-22T08:35:12;16.73;;;14.52;;
24739;SDS011;45234;48.148;17.128;2024-03-22T08:37:38;15.93;;;13.95;;
24739;SDS011;45234;48.148;17.128;2024-03-22T08:40:04;18.02;;;15.85;;
24739;SDS011;45234;48.148;17.128;2024-03-22T08:42:32;19.88;;;14.27;;
24739;SDS011;45234;48.148;17.128;2024-03-22T08:44:58;20.05;;;15.07;;
24739;SDS011;45234;48.148;17.128;2024-03-22T08:47:23;17.65;;;12.68;;
24739;SDS011;45234;48.148;17.128;2024-03-22T08:49:50;20.13;;;13.95;;
24739;SDS011;45234;48.148;17.128;2024-03-22T08:52:16;17.10;;;14.40;;
24739;SDS011;45234;48.148;17.128;2024-03-22T08:54:42;18.95;;;14.00;;
24739;SDS011;45234;48.148;17.128;2024-03-22T08:57:08;18.60;;;14.32;;
24739;SDS011;45234;48.148;17.128;2024-03-22T08:59:34;17.05;;;13.68;;
24739;SDS011;45234;48.148;17.128;2024-03-22T09:01:59;19.23;;;12.60;;
24739;SDS011;45234;48.148;17.128;2024-03-22T09:04:25;16.42;;;12.10;;
24739;SDS011;45234;48.148;17.128;2024-03-22T09:06:51;17.67;;;13.20;;
24739;SDS011;45234;48.148;17.128;2024-03-22T09:09:17;15.55;;;12.85;;
24739;SDS011;45234;48.148;17.128;2024-03-22T09:11:46;15.50;;;12.35;;
24739;SDS011;45234;48.148;17.128;2024-03-22T09:14:13;15.25;;;12.45;;
24739;SDS011;45234;48.148;17.128;2024-03-22T09:16:39;15.95;;;13.02;;
24739;SDS011;45234;48.148;17.128;2024-03-22T09:19:05;14.60;;;12.07;;
24739;SDS011;45234;48.148;17.128;2024-03-22T09:21:31;16.05;;;12.27;;
24739;SDS011;45234;48.148;17.128;2024-03-22T09:23:57;16.90;;;13.02;;
24739;SDS011;45234;48.148;17.128;2024-03-22T09:26:23;16.40;;;13.13;;
24739;SDS011;45234;48.148;17.128;2024-03-22T09:28:49;17.35;;;12.88;;
24739;SDS011;45234;48.148;17.128;2024-03-22T09:31:15;17.23;;;13.35;;
24739;SDS011;45234;48.148;17.128;2024-03-22T09:33:41;16.25;;;13.10;;
24739;SDS011;45234;48.148;17.128;2024-03-22T09:36:07;19.55;;;14.00;;
24739;SDS011;45234;48.148;17.128;2024-03-22T09:38:33;17.08;;;13.48;;
24739;SDS011;45234;48.148;17.128;2024-03-22T09:40:59;18.90;;;12.77;;
24739;SDS011;45234;48.148;17.128;2024-03-22T09:43:29;18.42;;;13.65;;
24739;SDS011;45234;48.148;17.128;2024-03-22T09:45:58;19.77;;;15.25;;
24739;SDS011;45234;48.148;17.128;2024-03-22T09:48:25;16.75;;;13.50;;
24739;SDS011;45234;48.148;17.128;2024-03-22T09:50:53;19.77;;;14.05;;
24739;SDS011;45234;48.148;17.128;2024-03-22T09:53:20;20.17;;;13.48;;
24739;SDS011;45234;48.148;17.128;2024-03-22T09:55:50;18.90;;;14.35;;
24739;SDS011;45234;48.148;17.128;2024-03-22T09:58:17;17.58;;;14.38;;
24739;SDS011;45234;48.148;17.128;2024-03-22T10:00:43;20.90;;;13.63;;
24739;SDS011;45234;48.148;17.128;2024-03-22T10:03:12;22.50;;;16.05;;
24739;SDS011;45234;48.148;17.128;2024-03-22T10:05:38;18.75;;;13.85;;
24739;SDS011;45234;48.148;17.128;2024-03-22T10:08:04;19.75;;;14.93;;
24739;SDS011;45234;48.148;17.128;2024-03-22T10:10:33;23.25;;;15.77;;
24739;SDS011;45234;48.148;17.128;2024-03-22T10:13:00;19.88;;;14.00;;
24739;SDS011;45234;48.148;17.128;2024-03-22T10:15:26;16.83;;;14.00;;
24739;SDS011;45234;48.148;17.128;2024-03-22T10:17:52;18.77;;;14.43;;
24739;SDS011;45234;48.148;17.128;2024-03-22T10:20:20;21.05;;;13.88;;
24739;SDS011;45234;48.148;17.128;2024-03-22T10:22:56;16.88;;;13.95;;
24739;SDS011;45234;48.148;17.128;2024-03-22T10:25:24;19.65;;;14.07;;
24739;SDS011;45234;48.148;17.128;2024-03-22T10:27:50;18.40;;;14.52;;
24739;SDS011;45234;48.148;17.128;2024-03-22T10:30:16;18.75;;;13.95;;
24739;SDS011;45234;48.148;17.128;2024-03-22T10:32:42;16.85;;;13.68;;
24739;SDS011;45234;48.148;17.128;2024-03-22T10:35:12;18.27;;;13.15;;
24739;SDS011;45234;48.148;17.128;2024-03-22T10:37:39;16.05;;;12.75;;
24739;SDS011;45234;48.148;17.128;2024-03-22T10:40:06;16.40;;;12.90;;
24739;SDS011;45234;48.148;17.128;2024-03-22T10:42:39;18.63;;;13.70;;
24739;SDS011;45234;48.148;17.128;2024-03-22T10:45:07;20.45;;;14.35;;
24739;SDS011;45234;48.148;17.128;2024-03-22T10:47:34;16.17;;;13.38;;
24739;SDS011;45234;48.148;17.128;2024-03-22T10:50:11;17.83;;;12.18;;
24739;SDS011;45234;48.148;17.128;2024-03-22T10:52:45;14.50;;;12.40;;
24739;SDS011;45234;48.148;17.128;2024-03-22T10:55:24;13.95;;;10.93;;
24739;SDS011;45234;48.148;17.128;2024-03-22T11:00:26;13.70;;;11.05;;
24739;SDS011;45234;48.148;17.128;2024-03-22T11:03:03;15.48;;;11.18;;
24739;SDS011;45234;48.148;17.128;2024-03-22T11:05:29;13.27;;;11.27;;
24739;SDS011;45234;48.148;17.128;2024-03-22T11:08:04;14.38;;;10.23;;
24739;SDS011;45234;48.148;17.128;2024-03-22T11:10:33;15.85;;;10.77;;
24739;SDS011;45234;48.148;17.128;2024-03-22T11:13:03;14.05;;;10.10;;
24739;SDS011;45234;48.148;17.128;2024-03-22T11:15:30;14.00;;;10.38;;
24739;SDS011;45234;48.148;17.128;2024-03-22T11:17:59;15.27;;;11.00;;
24739;SDS011;45234;48.148;17.128;2024-03-22T11:20:25;15.45;;;10.52;;
24739;SDS011;45234;48.148;17.128;2024-03-22T11:22:52;16.23;;;11.80;;
24739;SDS011;45234;48.148;17.128;2024-03-22T11:25:18;13.75;;;11.48;;
24739;SDS011;45234;48.148;17.128;2024-03-22T11:27:45;11.25;;;9.88;;
24739;SDS011;45234;48.148;17.128;2024-03-22T11:30:11;13.45;;;10.70;;
24739;SDS011;45234;48.148;17.128;2024-03-22T11:32:37;15.70;;;11.25;;
24739;SDS011;45234;48.148;17.128;2024-03-22T11:35:11;12.35;;;10.75;;
24739;SDS011;45234;48.148;17.128;2024-03-22T11:37:41;13.75;;;9.95;;
24739;SDS011;45234;48.148;17.128;2024-03-22T11:40:10;13.05;;;11.00;;
24739;SDS011;45234;48.148;17.128;2024-03-22T11:42:37;14.45;;;11.15;;
24739;SDS011;45234;48.148;17.128;2024-03-22T11:45:05;13.52;;;10.52;;
24739;SDS011;45234;48.148;17.128;2024-03-22T11:47:33;13.52;;;10.23;;
24739;SDS011;45234;48.148;17.128;2024-03-22T11:49:59;11.77;;;9.98;;
24739;SDS011;45234;48.148;17.128;2024-03-22T11:52:25;13.55;;;9.77;;
24739;SDS011;45234;48.148;17.128;2024-03-22T11:54:51;13.23;;;9.75;;
24739;SDS011;45234;48.148;17.128;2024-03-22T11:57:17;11.55;;;9.13;;
24739;SDS011;45234;48.148;17.128;2024-03-22T11:59:45;13.82;;;9.75;;
24739;SDS011;45234;48.148;17.128;2024-03-22T12:02:11;12.20;;;9.63;;
24739;SDS011;45234;48.148;17.128;2024-03-22T12:04:40;13.13;;;9.93;;
24739;SDS011;45234;48.148;17.128;2024-03-22T12:07:10;17.25;;;12.55;;
24739;SDS011;45234;48.148;17.128;2024-03-22T12:09:41;16.10;;;11.48;;
24739;SDS011;45234;48.148;17.128;2024-03-22T12:12:07;14.32;;;11.35;;
24739;SDS011;45234;48.148;17.128;2024-03-22T12:14:35;16.90;;;12.00;;
24739;SDS011;45234;48.148;17.128;2024-03-22T12:17:04;14.65;;;11.82;;
24739;SDS011;45234;48.148;17.128;2024-03-22T12:19:31;13.35;;;11.40;;
24739;SDS011;45234;48.148;17.128;2024-03-22T12:21:58;14.52;;;9.75;;
24739;SDS011;45234;48.148;17.128;2024-03-22T12:24:24;15.07;;;10.48;;
24739;SDS011;45234;48.148;17.128;2024-03-22T12:26:51;13.65;;;9.90;;
24739;SDS011;45234;48.148;17.128;2024-03-22T12:29:18;15.70;;;9.60;;
24739;SDS011;45234;48.148;17.128;2024-03-22T12:31:45;13.23;;;9.68;;
24739;SDS011;45234;48.148;17.128;2024-03-22T12:34:11;17.15;;;9.88;;
24739;SDS011;45234;48.148;17.128;2024-03-22T12:36:37;14.23;;;10.40;;
24739;SDS011;45234;48.148;17.128;2024-03-22T12:39:03;11.57;;;9.70;;
24739;SDS011;45234;48.148;17.128;2024-03-22T12:41:29;22.05;;;10.32;;
24739;SDS011;45234;48.148;17.128;2024-03-22T12:43:56;12.15;;;9.65;;
24739;SDS011;45234;48.148;17.128;2024-03-22T12:46:22;12.82;;;9.60;;
24739;SDS011;45234;48.148;17.128;2024-03-22T12:48:48;10.88;;;8.63;;
24739;SDS011;45234;48.148;17.128;2024-03-22T12:51:15;9.75;;;7.10;;
24739;SDS011;45234;48.148;17.128;2024-03-22T12:53:41;16.20;;;7.97;;
24739;SDS011;45234;48.148;17.128;2024-03-22T12:56:07;9.10;;;7.35;;
24739;SDS011;45234;48.148;17.128;2024-03-22T12:58:33;11.93;;;7.97;;
24739;SDS011;45234;48.148;17.128;2024-03-22T13:00:59;8.80;;;6.28;;
24739;SDS011;45234;48.148;17.128;2024-03-22T13:03:27;8.63;;;5.80;;
24739;SDS011;45234;48.148;17.128;2024-03-22T13:05:55;8.95;;;6.20;;
24739;SDS011;45234;48.148;17.128;2024-03-22T13:08:21;9.02;;;6.43;;
24739;SDS011;45234;48.148;17.128;2024-03-22T13:10:46;7.10;;;5.75;;
24739;SDS011;45234;48.148;17.128;2024-03-22T13:13:13;7.50;;;5.47;;
24739;SDS011;45234;48.148;17.128;2024-03-22T13:15:41;6.78;;;5.07;;
24739;SDS011;45234;48.148;17.128;2024-03-22T13:18:07;7.18;;;5.60;;
24739;SDS011;45234;48.148;17.128;2024-03-22T13:20:34;8.77;;;5.82;;
24739;SDS011;45234;48.148;17.128;2024-03-22T13:23:00;8.93;;;5.95;;
24739;SDS011;45234;48.148;17.128;2024-03-22T13:25:27;9.90;;;6.20;;
24739;SDS011;45234;48.148;17.128;2024-03-22T13:27:53;9.02;;;5.82;;
24739;SDS011;45234;48.148;17.128;2024-03-22T13:30:19;10.18;;;7.10;;
24739;SDS011;45234;48.148;17.128;2024-03-22T13:32:45;10.38;;;7.50;;
24739;SDS011;45234;48.148;17.128;2024-03-22T13:35:11;9.77;;;7.90;;
24739;SDS011;45234;48.148;17.128;2024-03-22T13:37:43;9.07;;;7.05;;
24739;SDS011;45234;48.148;17.128;2024-03-22T13:40:10;10.60;;;8.20;;
24739;SDS011;45234;48.148;17.128;2024-03-22T13:42:36;11.70;;;9.02;;
24739;SDS011;45234;48.148;17.128;2024-03-22T13:45:01;12.85;;;9.13;;
24739;SDS011;45234;48.148;17.128;2024-03-22T13:47:29;13.20;;;9.10;;
24739;SDS011;45234;48.148;17.128;2024-03-22T13:49:55;12.13;;;9.23;;
24739;SDS011;45234;48.148;17.128;2024-03-22T13:52:21;11.98;;;8.35;;
24739;SDS011;45234;48.148;17.128;2024-03-22T13:54:48;14.38;;;8.77;;
24739;SDS011;45234;48.148;17.128;2024-03-22T13:57:16;13.77;;;8.48;;
24739;SDS011;45234;48.148;17.128;2024-03-22T13:59:42;11.68;;;8.75;;
24739;SDS011;45234;48.148;17.128;2024-03-22T14:02:09;11.23;;;8.48;;
24739;SDS011;45234;48.148;17.128;2024-03-22T14:04:35;11.20;;;8.10;;
24739;SDS011;45234;48.148;17.128;2024-03-22T14:07:01;10.73;;;8.60;;
24739;SDS011;45234;48.148;17.128;2024-03-22T14:09:33;11.30;;;9.00;;
24739;SDS011;45234;48.148;17.128;2024-03-22T14:12:00;11.77;;;8.13;;
24739;SDS011;45234;48.148;17.128;2024-03-22T14:14:26;17.98;;;12.10;;